sensor_id;sensor_type;location;lat;lon;timestamp;pressure;altitude;pressure_sealevel;temperature;humidity
54854;BME280;40747;49.480;8.658;2023-04-22T00:00:11;99642.34;;;13.55;84.18
54854;BME280;40747;49.480;8.658;2023-04-22T00:02:37;99640.50;;;13.57;83.78
54854;BME280;40747;49.480;8.658;2023-04-22T00:05:03;99629.63;;;13.62;83.47
54854;BME280;40747;49.480;8.658;2023-04-22T00:07:29;99635.13;;;13.58;83.54
54854;BME280;40747;49.480;8.658;2023-04-22T00:09:54;99634.59;;;13.52;83.89
54854;BME280;40747;49.480;8.658;2023-04-22T00:12:19;99627.69;;;13.49;83.32
54854;BME280;40747;49.480;8.658;2023-04-22T00:14:45;99631.56;;;13.08;85.08
54854;BME280;40747;49.480;8.658;2023-04-22T00:17:11;99626.28;;;13.24;84.66
54854;BME280;40747;49.480;8.658;2023-04-22T00:19:36;99633.31;;;13.08;84.72
54854;BME280;40747;49.480;8.658;2023-04-22T00:22:02;99631.63;;;13.07;85.15
54854;BME280;40747;49.480;8.658;2023-04-22T00:24:28;99625.38;;;13.25;82.74
54854;BME280;40747;49.480;8.658;2023-04-22T00:26:53;99618.19;;;13.45;83.11
54854;BME280;40747;49.480;8.658;2023-04-22T00:29:19;99616.81;;;13.54;82.53
54854;BME280;40747;49.480;8.658;2023-04-22T00:31:44;99620.25;;;13.56;82.97
54854;BME280;40747;49.480;8.658;2023-04-22T00:34:09;99620.28;;;13.05;84.24
54854;BME280;40747;49.480;8.658;2023-04-22T00:36:35;99623.25;;;13.32;84.17
54854;BME280;40747;49.480;8.658;2023-04-22T00:39:00;99627.72;;;13.14;85.79
54854;BME280;40747;49.480;8.658;2023-04-22T00:41:26;99617.53;;;13.06;86.02
54854;BME280;40747;49.480;8.658;2023-04-22T00:43:52;99612.94;;;13.27;85.14
54854;BME280;40747;49.480;8.658;2023-04-22T00:46:18;99626.38;;;13.40;84.16
54854;BME280;40747;49.480;8.658;2023-04-22T00:48:45;99627.25;;;13.57;84.35
54854;BME280;40747;49.480;8.658;2023-04-22T00:51:10;99620.53;;;13.67;84.91
54854;BME280;40747;49.480;8.658;2023-04-22T00:53:35;99623.00;;;13.70;83.24
54854;BME280;40747;49.480;8.658;2023-04-22T00:56:01;99614.72;;;13.76;83.18
54854;BME280;40747;49.480;8.658;2023-04-22T00:58:27;99609.94;;;13.83;82.74
54854;BME280;40747;49.480;8.658;2023-04-22T01:00:53;99618.22;;;13.77;83.54
54854;BME280;40747;49.480;8.658;2023-04-22T01:03:19;99605.84;;;13.77;82.49
54854;BME280;40747;49.480;8.658;2023-04-22T01:05:47;99608.31;;;13.81;83.13
54854;BME280;40747;49.480;8.658;2023-04-22T01:08:13;99606.28;;;13.70;82.15
54854;BME280;40747;49.480;8.658;2023-04-22T01:10:38;99599.59;;;13.63;81.57
54854;BME280;40747;49.480;8.658;2023-04-22T01:13:05;99603.19;;;13.46;81.41
54854;BME280;40747;49.480;8.658;2023-04-22T01:15:30;99605.03;;;13.43;80.97
54854;BME280;40747;49.480;8.658;2023-04-22T01:17:56;99606.94;;;13.41;81.55
54854;BME280;40747;49.480;8.658;2023-04-22T01:20:22;99609.91;;;13.51;81.32
54854;BME280;40747;49.480;8.658;2023-04-22T01:22:49;99605.31;;;13.21;82.30
54854;BME280;40747;49.480;8.658;2023-04-22T01:25:15;99614.28;;;13.01;84.08
54854;BME280;40747;49.480;8.658;2023-04-22T01:27:40;99621.31;;;12.85;86.08
54854;BME280;40747;49.480;8.658;2023-04-22T01:30:06;99619.97;;;12.93;86.19
54854;BME280;40747;49.480;8.658;2023-04-22T01:32:32;99626.19;;;12.92;85.81
54854;BME280;40747;49.480;8.658;2023-04-22T01:34:58;99624.41;;;12.75;86.15
54854;BME280;40747;49.480;8.658;2023-04-22T01:37:24;99623.25;;;12.81;86.78
54854;BME280;40747;49.480;8.658;2023-04-22T01:39:49;99621.00;;;12.73;86.59
54854;BME280;40747;49.480;8.658;2023-04-22T01:42:14;99623.88;;;12.69;86.22
54854;BME280;40747;49.480;8.658;2023-04-22T01:44:40;99620.84;;;12.76;85.66
54854;BME280;40747;49.480;8.658;2023-04-22T01:47:06;99628.38;;;12.84;85.55
54854;BME280;40747;49.480;8.658;2023-04-22T01:49:32;99627.84;;;12.77;85.78
54854;BME280;40747;49.480;8.658;2023-04-22T01:51:57;99625.75;;;12.84;85.08
54854;BME280;40747;49.480;8.658;2023-04-22T01:54:23;99634.03;;;12.94;85.01
54854;BME280;40747;49.480;8.658;2023-04-22T01:56:52;99642.25;;;13.05;84.20
54854;BME280;40747;49.480;8.658;2023-04-22T01:59:19;99628.59;;;12.97;84.33
54854;BME280;40747;49.480;8.658;2023-04-22T02:01:45;99635.03;;;13.09;84.17
54854;BME280;40747;49.480;8.658;2023-04-22T02:04:10;99643.34;;;13.19;83.34
54854;BME280;40747;49.480;8.658;2023-04-22T02:06:35;99639.38;;;13.27;82.68
54854;BME280;40747;49.480;8.658;2023-04-22T02:09:01;99627.78;;;13.30;82.87
54854;BME280;40747;49.480;8.658;2023-04-22T02:11:26;99644.97;;;13.39;82.28
54854;BME280;40747;49.480;8.658;2023-04-22T02:13:51;99631.66;;;13.40;83.13
54854;BME280;40747;49.480;8.658;2023-04-22T02:16:17;99624.84;;;13.19;84.10
54854;BME280;40747;49.480;8.658;2023-04-22T02:18:42;99629.94;;;13.22;84.40
54854;BME280;40747;49.480;8.658;2023-04-22T02:21:07;99632.47;;;12.72;85.87
54854;BME280;40747;49.480;8.658;2023-04-22T02:23:34;99628.69;;;12.43;88.30
54854;BME280;40747;49.480;8.658;2023-04-22T02:25:59;99629.84;;;12.37;88.92
54854;BME280;40747;49.480;8.658;2023-04-22T02:28:25;99628.41;;;12.12;89.36
54854;BME280;40747;49.480;8.658;2023-04-22T02:30:50;99628.59;;;12.44;88.95
54854;BME280;40747;49.480;8.658;2023-04-22T02:33:16;99631.41;;;12.59;87.76
54854;BME280;40747;49.480;8.658;2023-04-22T02:35:41;99630.75;;;12.19;89.42
54854;BME280;40747;49.480;8.658;2023-04-22T02:38:06;99618.34;;;12.02;90.38
54854;BME280;40747;49.480;8.658;2023-04-22T02:40:32;99613.91;;;12.21;89.65
54854;BME280;40747;49.480;8.658;2023-04-22T02:42:57;99622.63;;;12.41;88.82
54854;BME280;40747;49.480;8.658;2023-04-22T02:45:22;99625.56;;;12.70;88.28
54854;BME280;40747;49.480;8.658;2023-04-22T02:47:48;99635.31;;;12.87;88.02
54854;BME280;40747;49.480;8.658;2023-04-22T02:50:13;99625.25;;;12.93;87.60
54854;BME280;40747;49.480;8.658;2023-04-22T02:52:38;99599.09;;;12.71;86.67
54854;BME280;40747;49.480;8.658;2023-04-22T02:55:04;99636.53;;;12.97;87.22
54854;BME280;40747;49.480;8.658;2023-04-22T02:57:29;99637.06;;;13.04;86.12
54854;BME280;40747;49.480;8.658;2023-04-22T02:59:55;99643.91;;;13.08;85.69
54854;BME280;40747;49.480;8.658;2023-04-22T03:02:21;99637.53;;;13.12;85.38
54854;BME280;40747;49.480;8.658;2023-04-22T03:04:46;99649.44;;;12.68;86.22
54854;BME280;40747;49.480;8.658;2023-04-22T03:07:12;99648.28;;;12.74;86.30
54854;BME280;40747;49.480;8.658;2023-04-22T03:09:37;99647.97;;;12.80;86.46
54854;BME280;40747;49.480;8.658;2023-04-22T03:12:03;99653.00;;;12.13;88.11
54854;BME280;40747;49.480;8.658;2023-04-22T03:14:28;99646.44;;;12.03;88.37
54854;BME280;40747;49.480;8.658;2023-04-22T03:16:54;99653.97;;;11.72;89.80
54854;BME280;40747;49.480;8.658;2023-04-22T03:19:19;99653.56;;;11.82;90.25
54854;BME280;40747;49.480;8.658;2023-04-22T03:21:44;99644.44;;;11.89;89.26
54854;BME280;40747;49.480;8.658;2023-04-22T03:24:10;99654.22;;;12.06;89.64
54854;BME280;40747;49.480;8.658;2023-04-22T03:26:35;99650.69;;;12.24;89.23
54854;BME280;40747;49.480;8.658;2023-04-22T03:29:00;99650.13;;;12.37;88.80
54854;BME280;40747;49.480;8.658;2023-04-22T03:31:26;99644.59;;;12.05;89.06
54854;BME280;40747;49.480;8.658;2023-04-22T03:33:51;99645.31;;;11.89;89.66
54854;BME280;40747;49.480;8.658;2023-04-22T03:36:17;99636.59;;;11.87;89.71
54854;BME280;40747;49.480;8.658;2023-04-22T03:38:42;99639.66;;;11.78;89.51
54854;BME280;40747;49.480;8.658;2023-04-22T03:41:07;99636.81;;;12.02;88.70
54854;BME280;40747;49.480;8.658;2023-04-22T03:43:33;99638.38;;;11.87;88.36
54854;BME280;40747;49.480;8.658;2023-04-22T03:45:58;99646.75;;;11.96;88.92
54854;BME280;40747;49.480;8.658;2023-04-22T03:48:24;99648.25;;;12.02;88.03
54854;BME280;40747;49.480;8.658;2023-04-22T03:50:50;99635.72;;;12.06;87.27
54854;BME280;40747;49.480;8.658;2023-04-22T03:53:15;99644.94;;;12.16;87.11
54854;BME280;40747;49.480;8.658;2023-04-22T03:55:40;99636.88;;;12.19;87.14
54854;BME280;40747;49.480;8.658;2023-04-22T03:58:05;99632.50;;;12.18;86.75
54854;BME280;40747;49.480;8.658;2023-04-22T04:00:31;99626.16;;;12.22;86.71
54854;BME280;40747;49.480;8.658;2023-04-22T04:02:57;99635.31;;;12.33;85.91
54854;BME280;40747;49.480;8.658;2023-04-22T04:05:22;99628.81;;;12.40;86.32
54854;BME280;40747;49.480;8.658;2023-04-22T04:07:48;99622.53;;;12.42;86.30
54854;BME280;40747;49.480;8.658;2023-04-22T04:10:13;99620.06;;;12.39;86.14
54854;BME280;40747;49.480;8.658;2023-04-22T04:12:38;99614.69;;;12.41;86.37
54854;BME280;40747;49.480;8.658;2023-04-22T04:15:04;99619.97;;;12.41;87.15
54854;BME280;40747;49.480;8.658;2023-04-22T04:17:29;99611.25;;;12.39;86.98
54854;BME280;40747;49.480;8.658;2023-04-22T04:19:55;99622.13;;;12.33;86.96
54854;BME280;40747;49.480;8.658;2023-04-22T04:22:20;99616.22;;;12.27;87.61
54854;BME280;40747;49.480;8.658;2023-04-22T04:24:46;99622.13;;;12.15;87.42
54854;BME280;40747;49.480;8.658;2023-04-22T04:27:12;99617.88;;;12.11;88.06
54854;BME280;40747;49.480;8.658;2023-04-22T04:29:38;99613.47;;;12.11;88.81
54854;BME280;40747;49.480;8.658;2023-04-22T04:32:06;99605.78;;;12.07;88.04
54854;BME280;40747;49.480;8.658;2023-04-22T04:34:32;99605.94;;;12.04;87.89
54854;BME280;40747;49.480;8.658;2023-04-22T04:36:58;99599.78;;;12.03;88.20
54854;BME280;40747;49.480;8.658;2023-04-22T04:39:23;99607.34;;;11.92;88.53
54854;BME280;40747;49.480;8.658;2023-04-22T04:41:50;99602.13;;;11.90;89.54
54854;BME280;40747;49.480;8.658;2023-04-22T04:44:19;99596.00;;;11.90;89.68
54854;BME280;40747;49.480;8.658;2023-04-22T04:46:44;99600.34;;;11.91;89.93
54854;BME280;40747;49.480;8.658;2023-04-22T04:49:11;99596.22;;;11.85;89.96
54854;BME280;40747;49.480;8.658;2023-04-22T04:51:39;99596.50;;;11.79;88.87
54854;BME280;40747;49.480;8.658;2023-04-22T04:54:04;99602.50;;;11.83;88.84
54854;BME280;40747;49.480;8.658;2023-04-22T04:56:30;99595.81;;;11.75;90.49
54854;BME280;40747;49.480;8.658;2023-04-22T04:58:55;99609.78;;;11.77;91.17
54854;BME280;40747;49.480;8.658;2023-04-22T05:01:21;99618.84;;;11.72;90.85
54854;BME280;40747;49.480;8.658;2023-04-22T05:03:46;99616.13;;;11.73;90.81
54854;BME280;40747;49.480;8.658;2023-04-22T05:06:12;99623.91;;;11.57;90.89
54854;BME280;40747;49.480;8.658;2023-04-22T05:08:37;99631.88;;;11.75;91.08
54854;BME280;40747;49.480;8.658;2023-04-22T05:11:02;99624.59;;;11.80;90.46
54854;BME280;40747;49.480;8.658;2023-04-22T05:13:28;99619.03;;;11.86;89.36
54854;BME280;40747;49.480;8.658;2023-04-22T05:15:53;99631.16;;;11.90;88.98
54854;BME280;40747;49.480;8.658;2023-04-22T05:18:20;99630.91;;;11.96;89.24
54854;BME280;40747;49.480;8.658;2023-04-22T05:20:46;99632.47;;;12.01;89.08
54854;BME280;40747;49.480;8.658;2023-04-22T05:23:11;99640.88;;;12.09;89.06
54854;BME280;40747;49.480;8.658;2023-04-22T05:25:36;99647.59;;;12.16;88.92
54854;BME280;40747;49.480;8.658;2023-04-22T05:28:01;99645.88;;;12.15;90.26
54854;BME280;40747;49.480;8.658;2023-04-22T05:30:27;99648.28;;;12.20;90.66
54854;BME280;40747;49.480;8.658;2023-04-22T05:32:52;99647.13;;;12.25;90.24
54854;BME280;40747;49.480;8.658;2023-04-22T05:35:17;99648.63;;;12.31;90.56
54854;BME280;40747;49.480;8.658;2023-04-22T05:37:43;99644.13;;;12.33;90.93
54854;BME280;40747;49.480;8.658;2023-04-22T05:40:08;99651.25;;;12.31;90.75
54854;BME280;40747;49.480;8.658;2023-04-22T05:42:33;99651.81;;;12.38;91.47
54854;BME280;40747;49.480;8.658;2023-04-22T05:44:59;99653.53;;;12.39;91.90
54854;BME280;40747;49.480;8.658;2023-04-22T05:47:24;99652.13;;;12.32;90.87
54854;BME280;40747;49.480;8.658;2023-04-22T05:49:49;99658.81;;;12.39;90.45
54854;BME280;40747;49.480;8.658;2023-04-22T05:52:15;99659.72;;;12.38;89.98
54854;BME280;40747;49.480;8.658;2023-04-22T05:54:40;99652.56;;;12.03;90.45
54854;BME280;40747;49.480;8.658;2023-04-22T05:57:05;99661.09;;;11.51;92.61
54854;BME280;40747;49.480;8.658;2023-04-22T05:59:31;99661.03;;;11.53;93.47
54854;BME280;40747;49.480;8.658;2023-04-22T06:01:56;99657.97;;;11.62;93.44
54854;BME280;40747;49.480;8.658;2023-04-22T06:04:21;99659.25;;;11.91;92.53
54854;BME280;40747;49.480;8.658;2023-04-22T06:06:47;99670.72;;;11.71;92.98
54854;BME280;40747;49.480;8.658;2023-04-22T06:09:12;99658.78;;;11.64;94.29
54854;BME280;40747;49.480;8.658;2023-04-22T06:11:38;99675.72;;;11.58;94.74
54854;BME280;40747;49.480;8.658;2023-04-22T06:14:03;99673.72;;;11.83;94.16
54854;BME280;40747;49.480;8.658;2023-04-22T06:16:28;99673.47;;;11.89;93.74
54854;BME280;40747;49.480;8.658;2023-04-22T06:18:54;99686.03;;;12.03;94.20
54854;BME280;40747;49.480;8.658;2023-04-22T06:21:19;99688.50;;;12.25;93.98
54854;BME280;40747;49.480;8.658;2023-04-22T06:23:45;99687.66;;;12.24;94.10
54854;BME280;40747;49.480;8.658;2023-04-22T06:26:11;99691.88;;;12.09;94.96
54854;BME280;40747;49.480;8.658;2023-04-22T06:28:36;99695.03;;;12.18;95.68
54854;BME280;40747;49.480;8.658;2023-04-22T06:31:01;99690.88;;;12.31;94.79
54854;BME280;40747;49.480;8.658;2023-04-22T06:33:27;99693.38;;;12.34;94.22
54854;BME280;40747;49.480;8.658;2023-04-22T06:35:52;99674.00;;;12.16;94.99
54854;BME280;40747;49.480;8.658;2023-04-22T06:38:17;99664.69;;;12.26;95.37
54854;BME280;40747;49.480;8.658;2023-04-22T06:40:43;99660.38;;;12.43;94.54
54854;BME280;40747;49.480;8.658;2023-04-22T06:43:08;99675.84;;;12.68;93.41
54854;BME280;40747;49.480;8.658;2023-04-22T06:45:33;99642.50;;;12.66;92.46
54854;BME280;40747;49.480;8.658;2023-04-22T06:47:59;99665.38;;;12.84;93.29
54854;BME280;40747;49.480;8.658;2023-04-22T06:50:24;99664.28;;;13.06;91.39
54854;BME280;40747;49.480;8.658;2023-04-22T06:52:50;99654.38;;;13.27;90.12
54854;BME280;40747;49.480;8.658;2023-04-22T06:55:15;99659.16;;;13.38;89.32
54854;BME280;40747;49.480;8.658;2023-04-22T06:57:40;99659.84;;;13.57;88.38
54854;BME280;40747;49.480;8.658;2023-04-22T07:00:06;99657.06;;;13.76;88.25
54854;BME280;40747;49.480;8.658;2023-04-22T07:02:33;99667.00;;;13.89;87.59
54854;BME280;40747;49.480;8.658;2023-04-22T07:04:58;99662.63;;;13.88;87.21
54854;BME280;40747;49.480;8.658;2023-04-22T07:07:24;99655.13;;;13.80;86.87
54854;BME280;40747;49.480;8.658;2023-04-22T07:09:49;99641.84;;;13.48;87.73
54854;BME280;40747;49.480;8.658;2023-04-22T07:12:14;99654.00;;;13.68;87.56
54854;BME280;40747;49.480;8.658;2023-04-22T07:14:44;99653.25;;;13.98;86.70
54854;BME280;40747;49.480;8.658;2023-04-22T07:17:10;99653.34;;;13.97;85.92
54854;BME280;40747;49.480;8.658;2023-04-22T07:19:36;99657.69;;;14.30;85.07
54854;BME280;40747;49.480;8.658;2023-04-22T07:22:02;99659.06;;;14.51;85.42
54854;BME280;40747;49.480;8.658;2023-04-22T07:24:28;99654.28;;;14.58;86.18
54854;BME280;40747;49.480;8.658;2023-04-22T07:26:53;99659.09;;;14.98;83.96
54854;BME280;40747;49.480;8.658;2023-04-22T07:29:19;99651.13;;;15.12;79.84
54854;BME280;40747;49.480;8.658;2023-04-22T07:31:44;99644.81;;;15.29;81.79
54854;BME280;40747;49.480;8.658;2023-04-22T07:34:10;99642.66;;;15.36;81.97
54854;BME280;40747;49.480;8.658;2023-04-22T07:36:36;99640.44;;;15.57;81.95
54854;BME280;40747;49.480;8.658;2023-04-22T07:39:01;99631.91;;;15.81;80.46
54854;BME280;40747;49.480;8.658;2023-04-22T07:41:26;99613.03;;;15.85;78.62
54854;BME280;40747;49.480;8.658;2023-04-22T07:43:52;99627.75;;;16.18;78.14
54854;BME280;40747;49.480;8.658;2023-04-22T07:46:17;99636.84;;;16.69;76.03
54854;BME280;40747;49.480;8.658;2023-04-22T07:48:42;99642.66;;;17.14;73.75
54854;BME280;40747;49.480;8.658;2023-04-22T07:51:08;99638.94;;;17.30;72.85
54854;BME280;40747;49.480;8.658;2023-04-22T07:53:33;99638.06;;;17.68;72.44
54854;BME280;40747;49.480;8.658;2023-04-22T07:56:00;99626.72;;;18.03;72.79
54854;BME280;40747;49.480;8.658;2023-04-22T07:58:25;99623.06;;;18.53;72.77
54854;BME280;40747;49.480;8.658;2023-04-22T08:00:50;99636.59;;;19.09;70.53
54854;BME280;40747;49.480;8.658;2023-04-22T08:03:16;99634.19;;;19.18;68.96
54854;BME280;40747;49.480;8.658;2023-04-22T08:05:41;99640.75;;;19.47;69.47
54854;BME280;40747;49.480;8.658;2023-04-22T08:08:07;99638.81;;;19.72;66.90
54854;BME280;40747;49.480;8.658;2023-04-22T08:10:32;99635.06;;;19.86;68.93
54854;BME280;40747;49.480;8.658;2023-04-22T08:12:57;99636.19;;;20.27;67.81
54854;BME280;40747;49.480;8.658;2023-04-22T08:15:23;99636.16;;;20.71;66.03
54854;BME280;40747;49.480;8.658;2023-04-22T08:17:48;99630.78;;;21.14;65.28
54854;BME280;40747;49.480;8.658;2023-04-22T08:20:13;99631.59;;;21.04;63.11
54854;BME280;40747;49.480;8.658;2023-04-22T08:22:39;99631.16;;;21.30;62.03
54854;BME280;40747;49.480;8.658;2023-04-22T08:25:07;99625.81;;;21.61;62.16
54854;BME280;40747;49.480;8.658;2023-04-22T08:27:33;99626.31;;;21.76;58.44
54854;BME280;40747;49.480;8.658;2023-04-22T08:29:58;99619.50;;;21.62;57.74
54854;BME280;40747;49.480;8.658;2023-04-22T08:32:24;99621.25;;;21.52;58.40
54854;BME280;40747;49.480;8.658;2023-04-22T08:34:50;99620.50;;;21.09;58.22
54854;BME280;40747;49.480;8.658;2023-04-22T08:37:15;99617.13;;;20.86;57.75
54854;BME280;40747;49.480;8.658;2023-04-22T08:39:41;99617.44;;;20.60;58.68
54854;BME280;40747;49.480;8.658;2023-04-22T08:42:06;99622.13;;;20.79;61.28
54854;BME280;40747;49.480;8.658;2023-04-22T08:44:34;99619.47;;;21.00;60.53
54854;BME280;40747;49.480;8.658;2023-04-22T08:47:00;99610.09;;;21.16;59.10
54854;BME280;40747;49.480;8.658;2023-04-22T08:49:25;99616.31;;;20.95;59.57
54854;BME280;40747;49.480;8.658;2023-04-22T08:51:52;99613.28;;;20.67;59.14
54854;BME280;40747;49.480;8.658;2023-04-22T08:54:18;99615.16;;;20.55;59.91
54854;BME280;40747;49.480;8.658;2023-04-22T08:56:44;99616.00;;;20.88;59.61
54854;BME280;40747;49.480;8.658;2023-04-22T08:59:10;99608.28;;;20.95;59.75
54854;BME280;40747;49.480;8.658;2023-04-22T09:01:38;99614.88;;;21.12;59.49
54854;BME280;40747;49.480;8.658;2023-04-22T09:04:04;99605.28;;;21.40;60.06
54854;BME280;40747;49.480;8.658;2023-04-22T09:06:31;99601.22;;;21.15;60.71
54854;BME280;40747;49.480;8.658;2023-04-22T09:08:57;99596.72;;;21.87;59.29
54854;BME280;40747;49.480;8.658;2023-04-22T09:11:25;99591.97;;;22.20;59.55
54854;BME280;40747;49.480;8.658;2023-04-22T09:13:52;99569.34;;;21.84;57.33
54854;BME280;40747;49.480;8.658;2023-04-22T09:16:18;99587.38;;;21.72;57.32
54854;BME280;40747;49.480;8.658;2023-04-22T09:18:43;99593.13;;;21.67;60.41
54854;BME280;40747;49.480;8.658;2023-04-22T09:21:12;99590.81;;;22.03;58.36
54854;BME280;40747;49.480;8.658;2023-04-22T09:23:49;99585.75;;;22.20;58.26
54854;BME280;40747;49.480;8.658;2023-04-22T09:26:18;99586.72;;;21.99;57.60
54854;BME280;40747;49.480;8.658;2023-04-22T09:28:52;99594.63;;;21.91;57.96
54854;BME280;40747;49.480;8.658;2023-04-22T09:31:20;99589.06;;;21.73;58.09
54854;BME280;40747;49.480;8.658;2023-04-22T09:33:53;99596.78;;;21.66;58.27
54854;BME280;40747;49.480;8.658;2023-04-22T09:36:25;99592.97;;;21.69;57.89
54854;BME280;40747;49.480;8.658;2023-04-22T09:38:56;99597.28;;;21.91;58.14
54854;BME280;40747;49.480;8.658;2023-04-22T09:41:35;99587.47;;;22.31;55.59
54854;BME280;40747;49.480;8.658;2023-04-22T09:44:02;99578.91;;;22.94;56.44
54854;BME280;40747;49.480;8.658;2023-04-22T09:46:29;99575.31;;;23.33;56.09
54854;BME280;40747;49.480;8.658;2023-04-22T09:48:57;99569.25;;;23.21;57.12
54854;BME280;40747;49.480;8.658;2023-04-22T09:51:23;99571.28;;;23.47;54.27
54854;BME280;40747;49.480;8.658;2023-04-22T09:59:07;99563.28;;;24.29;52.96
54854;BME280;40747;49.480;8.658;2023-04-22T10:01:37;99564.34;;;24.36;52.33
54854;BME280;40747;49.480;8.658;2023-04-22T10:04:05;99567.53;;;23.85;52.49
54854;BME280;40747;49.480;8.658;2023-04-22T10:06:30;99564.56;;;23.33;52.58
54854;BME280;40747;49.480;8.658;2023-04-22T10:08:58;99567.59;;;23.48;51.59
54854;BME280;40747;49.480;8.658;2023-04-22T10:11:23;99563.19;;;23.19;51.34
54854;BME280;40747;49.480;8.658;2023-04-22T10:13:49;99557.75;;;23.38;51.02
54854;BME280;40747;49.480;8.658;2023-04-22T10:16:14;99565.00;;;23.28;52.34
54854;BME280;40747;49.480;8.658;2023-04-22T10:18:41;99555.03;;;23.01;52.03
54854;BME280;40747;49.480;8.658;2023-04-22T10:21:07;99553.44;;;23.18;52.23
54854;BME280;40747;49.480;8.658;2023-04-22T10:23:33;99557.91;;;23.37;53.27
54854;BME280;40747;49.480;8.658;2023-04-22T10:25:58;99555.34;;;23.91;51.26
54854;BME280;40747;49.480;8.658;2023-04-22T10:28:27;99561.19;;;24.23;50.03
54854;BME280;40747;49.480;8.658;2023-04-22T10:30:52;99554.19;;;24.66;50.42
54854;BME280;40747;49.480;8.658;2023-04-22T10:36:07;99558.78;;;25.34;48.82
54854;BME280;40747;49.480;8.658;2023-04-22T10:38:34;99550.25;;;25.98;49.35
54854;BME280;40747;49.480;8.658;2023-04-22T10:41:00;99544.72;;;26.08;46.59
54854;BME280;40747;49.480;8.658;2023-04-22T10:46:05;99545.28;;;26.45;43.93
54854;BME280;40747;49.480;8.658;2023-04-22T10:48:47;99538.09;;;25.94;43.80
54854;BME280;40747;49.480;8.658;2023-04-22T10:51:42;99545.47;;;25.67;45.36
54854;BME280;40747;49.480;8.658;2023-04-22T10:57:12;99533.25;;;25.12;47.54
54854;BME280;40747;49.480;8.658;2023-04-22T11:02:08;99539.41;;;24.96;47.45
54854;BME280;40747;49.480;8.658;2023-04-22T11:04:35;99534.91;;;24.79;45.91
54854;BME280;40747;49.480;8.658;2023-04-22T11:07:28;99537.53;;;24.89;46.50
54854;BME280;40747;49.480;8.658;2023-04-22T11:15:00;99530.41;;;26.16;45.12
54854;BME280;40747;49.480;8.658;2023-04-22T11:17:25;99527.69;;;26.16;44.85
54854;BME280;40747;49.480;8.658;2023-04-22T11:19:50;99517.75;;;26.41;46.66
54854;BME280;40747;49.480;8.658;2023-04-22T11:22:22;99523.56;;;25.71;42.73
54854;BME280;40747;49.480;8.658;2023-04-22T11:27:18;99534.84;;;25.23;45.52
54854;BME280;40747;49.480;8.658;2023-04-22T11:30:08;99538.53;;;25.57;45.60
54854;BME280;40747;49.480;8.658;2023-04-22T11:32:38;99530.28;;;25.66;44.71
54854;BME280;40747;49.480;8.658;2023-04-22T11:35:09;99528.19;;;25.95;44.20
54854;BME280;40747;49.480;8.658;2023-04-22T11:40:13;99531.59;;;26.13;44.33
54854;BME280;40747;49.480;8.658;2023-04-22T11:42:38;99531.69;;;25.95;41.90
54854;BME280;40747;49.480;8.658;2023-04-22T11:45:05;99525.28;;;25.37;42.43
54854;BME280;40747;49.480;8.658;2023-04-22T11:47:32;99531.09;;;25.24;41.50
54854;BME280;40747;49.480;8.658;2023-04-22T11:50:00;99530.09;;;25.25;42.91
54854;BME280;40747;49.480;8.658;2023-04-22T11:52:44;99524.81;;;24.81;43.51
54854;BME280;40747;49.480;8.658;2023-04-22T11:55:11;99520.69;;;24.95;43.69
54854;BME280;40747;49.480;8.658;2023-04-22T11:57:37;99521.75;;;24.31;44.17
54854;BME280;40747;49.480;8.658;2023-04-22T12:00:04;99520.78;;;24.32;43.40
54854;BME280;40747;49.480;8.658;2023-04-22T12:02:29;99512.41;;;24.44;43.01
54854;BME280;40747;49.480;8.658;2023-04-22T12:04:57;99526.47;;;24.74;42.69
54854;BME280;40747;49.480;8.658;2023-04-22T12:07:22;99515.78;;;24.64;43.25
54854;BME280;40747;49.480;8.658;2023-04-22T12:09:52;99518.25;;;24.57;43.68
54854;BME280;40747;49.480;8.658;2023-04-22T12:12:23;99510.25;;;24.47;43.70
54854;BME280;40747;49.480;8.658;2023-04-22T12:14:48;99517.84;;;24.70;43.46
54854;BME280;40747;49.480;8.658;2023-04-22T12:17:13;99521.34;;;24.89;42.98
54854;BME280;40747;49.480;8.658;2023-04-22T12:19:40;99509.69;;;24.80;41.61
54854;BME280;40747;49.480;8.658;2023-04-22T12:22:10;99518.97;;;24.85;42.69
54854;BME280;40747;49.480;8.658;2023-04-22T12:24:35;99530.00;;;24.56;42.44
54854;BME280;40747;49.480;8.658;2023-04-22T12:27:01;99531.50;;;24.14;42.65
54854;BME280;40747;49.480;8.658;2023-04-22T12:29:32;99523.69;;;24.21;45.90
54854;BME280;40747;49.480;8.658;2023-04-22T12:31:58;99523.81;;;24.19;43.57
54854;BME280;40747;49.480;8.658;2023-04-22T12:34:23;99521.97;;;23.84;43.49
54854;BME280;40747;49.480;8.658;2023-04-22T12:36:49;99522.03;;;23.74;43.97
54854;BME280;40747;49.480;8.658;2023-04-22T12:39:14;99517.81;;;23.71;44.69
54854;BME280;40747;49.480;8.658;2023-04-22T12:41:40;99522.00;;;23.56;45.99
54854;BME280;40747;49.480;8.658;2023-04-22T12:44:05;99525.16;;;23.14;45.89
54854;BME280;40747;49.480;8.658;2023-04-22T12:46:32;99531.78;;;23.29;46.34
54854;BME280;40747;49.480;8.658;2023-04-22T12:48:57;99536.41;;;22.89;45.04
54854;BME280;40747;49.480;8.658;2023-04-22T12:51:22;99534.16;;;22.85;45.32
54854;BME280;40747;49.480;8.658;2023-04-22T12:53:48;99535.78;;;22.58;45.75
54854;BME280;40747;49.480;8.658;2023-04-22T12:56:13;99533.69;;;22.42;46.28
54854;BME280;40747;49.480;8.658;2023-04-22T12:58:39;99545.41;;;22.41;46.25
54854;BME280;40747;49.480;8.658;2023-04-22T13:01:04;99539.03;;;22.13;46.55
54854;BME280;40747;49.480;8.658;2023-04-22T13:03:30;99546.91;;;22.34;47.90
54854;BME280;40747;49.480;8.658;2023-04-22T13:05:55;99535.50;;;22.32;47.27
54854;BME280;40747;49.480;8.658;2023-04-22T13:08:20;99537.47;;;22.20;47.24
54854;BME280;40747;49.480;8.658;2023-04-22T13:10:46;99541.13;;;21.99;47.05
54854;BME280;40747;49.480;8.658;2023-04-22T13:13:12;99551.59;;;22.02;47.37
54854;BME280;40747;49.480;8.658;2023-04-22T13:15:37;99540.44;;;22.07;48.78
54854;BME280;40747;49.480;8.658;2023-04-22T13:18:02;99540.41;;;21.87;48.26
54854;BME280;40747;49.480;8.658;2023-04-22T13:20:28;99548.03;;;21.82;48.48